Terminal Aerodrome Forecast
Issued by NWS

Home | Current Version | Previous Version | Text Only | Print | Product List | Glossary On
Versions: 1 2 3 4 5 6 7 8 9 10 11 12 13 14 15 16 17 18 19 20 21 22 23 24 25 26
000
FTUS44 KOUN 280520
TAFGAG
TAF
KGAG 280520Z 2806/2906 13008KT P6SM FEW250
     FM281000 11010KT P6SM OVC015
      TEMPO 2811/2815 2SM BR
     FM281500 11014G22KT P6SM BKN035
      TEMPO 2818/2822 2SM TSRA BR OVC015CB
     FM290300 07008KT P6SM OVC008=

USA.gov is the U.S. government's official web portal to all federal, state and local government web resources and services.